This is the latest recevied weather packets stored in our database for station/object N5DGC. If no packets are shown the sender has not sent any weather packets the latest 10 day(s).
| Time | Temp. | Humidity | Pressure | Rain* | Wind** | Luminosity | Snow |
|---|---|---|---|---|---|---|---|
| 1777823786 | 18.33° C | 40% | 1241.1 hPa | 0 mm | - | 499 W/m² | - |
| 1777823484 | 18.33° C | 39% | 1241 hPa | 0 mm | - | 535 W/m² | - |
| 1777823181 | 17.78° C | 42% | 1241.4 hPa | 0 mm | - | 522 W/m² | - |
| 1777822879 | 18.33° C | 40% | 1241.6 hPa | 0 mm | - | 486 W/m² | - |
| 1777822576 | 17.78° C | 41% | 1241.4 hPa | 0 mm | - | 519 W/m² | - |
| 1777822274 | 17.22° C | 43% | 1241.1 hPa | 0 mm | - | 504 W/m² | - |
| 1777821971 | 16.11° C | 45% | 1241.2 hPa | 0 mm | - | 528 W/m² | - |
| 1777821669 | 16.11° C | 45% | 1241.4 hPa | 0 mm | - | 499 W/m² | - |
| 1777821367 | 16.11° C | 45% | 1241.4 hPa | 0 mm | - | 441 W/m² | - |
| 1777821063 | 15° C | 49% | 1241.5 hPa | 0 mm | - | 515 W/m² | - |
| 1777820760 | 13.89° C | 51% | 1241.5 hPa | 0 mm | - | 521 W/m² | - |
| 1777820456 | 13.33° C | 53% | 1241.6 hPa | 0 mm | - | 340 W/m² | - |
| 1777820153 | 13.89° C | 51% | 1241.5 hPa | 0 mm | - | 341 W/m² | - |
| 1777819851 | 13.33° C | 54% | 1241.5 hPa | 0 mm | - | 249 W/m² | - |
| 1777819548 | 12.78° C | 55% | 1241.4 hPa | 0 mm | - | 167 W/m² | - |
| 1777819245 | 12.78° C | 55% | 1241.2 hPa | 0 mm | - | 227 W/m² | - |
| 1777818942 | 12.22° C | 57% | 1241.5 hPa | 0 mm | - | 184 W/m² | - |
| 1777818638 | 12.22° C | 57% | 1241.4 hPa | 0 mm | - | 175 W/m² | - |
| 1777818336 | 11.67° C | 59% | 1241.5 hPa | 0 mm | - | 106 W/m² | - |
| 1777818032 | 11.67° C | 59% | 1241.5 hPa | 0 mm | - | 87 W/m² | - |
| 1777817729 | 11.11° C | 61% | 1241.2 hPa | 0 mm | - | 76 W/m² | - |
| 1777817426 | 11.11° C | 61% | 1241.2 hPa | 0 mm | - | 78 W/m² | - |
| 1777817122 | 10.56° C | 64% | 1241.2 hPa | 0 mm | - | 76 W/m² | - |
| 1777816820 | 10.56° C | 64% | 1241.1 hPa | 0 mm | - | 72 W/m² | - |
| 1777816517 | 10° C | 67% | 1241.1 hPa | 0 mm | - | 70 W/m² | - |
* Rain latest hour (hover to see other rain measurements)
** Current wind speed in m/s (hover to see current wind gust speed)